createdAt,value
2022-09-23T00:01:14.407Z,6.66
2022-09-23T00:03:45.635Z,6.65
2022-09-23T00:06:21.294Z,6.58
2022-09-23T00:08:52.209Z,6.53
2022-09-23T00:11:26.715Z,6.45
2022-09-23T00:13:58.447Z,6.51
2022-09-23T00:16:34.105Z,6.42
2022-09-23T00:19:06.422Z,6.46
2022-09-23T00:21:35.552Z,6.45
2022-09-23T00:24:03.516Z,6.38
2022-09-23T00:26:31.244Z,6.35
2022-09-23T00:28:59.090Z,6.23
2022-09-23T00:31:27.908Z,6.21
2022-09-23T00:34:01.690Z,6.29
2022-09-23T00:36:32.677Z,6.23
2022-09-23T00:40:32.189Z,6.20
2022-09-23T00:45:55.634Z,6.14
2022-09-23T00:48:23.430Z,6.01
2022-09-23T00:50:54.449Z,6.00
2022-09-23T00:53:27.076Z,5.99
2022-09-23T00:56:03.675Z,6.00
2022-09-23T00:58:34.866Z,6.01
2022-09-23T01:01:05.537Z,6.09
2022-09-23T01:03:33.198Z,5.99
2022-09-23T01:06:01.130Z,5.97
2022-09-23T01:08:29.367Z,5.96
2022-09-23T01:11:10.571Z,5.96
2022-09-23T01:13:57.798Z,5.91
2022-09-23T01:16:46.308Z,5.91
2022-09-23T01:19:47.252Z,5.87
2022-09-23T01:22:43.113Z,5.85
2022-09-23T01:25:36.636Z,5.77
2022-09-23T01:28:30.068Z,5.82
2022-09-23T01:31:32.847Z,5.79
2022-09-23T01:34:13.355Z,5.74
2022-09-23T01:36:59.531Z,5.76
2022-09-23T01:42:57.301Z,5.56
2022-09-23T01:45:44.857Z,5.58
2022-09-23T01:48:27.294Z,5.55
2022-09-23T01:51:05.303Z,5.63
2022-09-23T01:53:40.068Z,5.59
2022-09-23T01:56:37.375Z,5.54
2022-09-23T01:59:22.297Z,5.49
2022-09-23T02:02:16.502Z,5.50
2022-09-23T02:05:05.909Z,5.46
2022-09-23T02:07:54.753Z,5.48
2022-09-23T02:10:26.084Z,5.49
2022-09-23T02:13:01.885Z,5.52
2022-09-23T02:15:39.164Z,5.50
2022-09-23T02:18:42.912Z,5.53
2022-09-23T02:21:11.926Z,5.59
2022-09-23T02:23:44.326Z,5.56
2022-09-23T02:26:39.218Z,5.64
2022-09-23T02:29:28.800Z,5.68
2022-09-23T02:32:24.425Z,5.67
2022-09-23T02:35:27.307Z,5.69
2022-09-23T02:38:16.497Z,5.60
2022-09-23T02:41:08.077Z,5.58
2022-09-23T02:43:50.916Z,5.61
2022-09-23T02:46:19.467Z,5.66
2022-09-23T02:49:01.368Z,5.55
2022-09-23T02:51:38.251Z,5.63
2022-09-23T02:54:10.803Z,5.51
2022-09-23T02:56:40.077Z,5.64
2022-09-23T02:59:09.887Z,5.54
2022-09-23T03:01:53.941Z,5.58
2022-09-23T03:04:27.927Z,5.60
2022-09-23T03:07:14.068Z,5.62
2022-09-23T03:09:44.270Z,5.70
2022-09-23T03:12:36.705Z,5.77
2022-09-23T03:15:24.047Z,5.77
2022-09-23T03:18:15.312Z,5.92
2022-09-23T03:20:51.637Z,5.99
2022-09-23T03:23:25.999Z,6.09
2022-09-23T03:25:56.798Z,6.08
2022-09-23T03:28:27.422Z,6.17
2022-09-23T03:31:01.745Z,6.19
2022-09-23T03:33:31.926Z,6.14
2022-09-23T03:36:24.579Z,6.17
2022-09-23T03:38:59.720Z,6.19
2022-09-23T03:41:33.557Z,6.18
2022-09-23T03:44:00.808Z,6.21
2022-09-23T03:46:30.317Z,6.20
2022-09-23T03:49:02.789Z,6.22
2022-09-23T03:51:29.724Z,6.24
2022-09-23T03:54:01.075Z,6.29
2022-09-23T03:56:28.459Z,6.27
2022-09-23T03:58:56.899Z,6.25
2022-09-23T04:01:24.823Z,6.27
2022-09-23T04:03:53.771Z,6.24
2022-09-23T04:06:22.609Z,6.26
2022-09-23T04:08:50.161Z,6.29
2022-09-23T04:11:19.785Z,6.32
2022-09-23T04:13:47.738Z,6.36
2022-09-23T04:16:17.534Z,6.35
2022-09-23T04:18:45.231Z,6.35
2022-09-23T04:21:12.390Z,6.36
2022-09-23T04:23:39.323Z,6.31
2022-09-23T04:26:06.808Z,6.27
2022-09-23T04:28:34.676Z,6.22
2022-09-23T04:31:05.652Z,6.20
2022-09-23T04:33:33.086Z,6.16
2022-09-23T04:36:00.778Z,6.15
2022-09-23T04:38:28.142Z,6.15
2022-09-23T04:40:55.179Z,6.12
2022-09-23T04:43:23.709Z,6.16
2022-09-23T04:46:06.142Z,6.16
2022-09-23T04:48:33.263Z,6.13
2022-09-23T04:51:07.873Z,6.11
2022-09-23T04:53:39.484Z,6.08
2022-09-23T04:56:12.956Z,6.12
2022-09-23T04:58:41.878Z,6.04
2022-09-23T05:01:14.558Z,6.04
2022-09-23T05:03:43.264Z,6.03
2022-09-23T05:06:13.983Z,6.06
2022-09-23T05:08:50.382Z,6.07
2022-09-23T05:11:18.933Z,6.11
2022-09-23T05:13:50.359Z,6.11
2022-09-23T05:16:18.457Z,6.16
2022-09-23T05:18:46.937Z,6.27
2022-09-23T05:21:16.353Z,6.31
2022-09-23T05:23:47.244Z,6.33
2022-09-23T05:26:15.473Z,6.46
2022-09-23T05:28:42.869Z,6.57
2022-09-23T05:31:19.944Z,6.64
2022-09-23T05:33:52.197Z,6.76
2022-09-23T05:36:21.809Z,6.96
2022-09-23T05:38:50.281Z,7.08
2022-09-23T05:41:18.877Z,7.22
2022-09-23T05:43:46.529Z,7.30
2022-09-23T05:46:23.479Z,7.54
2022-09-23T05:48:50.778Z,7.78
2022-09-23T05:51:20.887Z,8.02
2022-09-23T05:53:48.872Z,8.25
2022-09-23T05:56:17.026Z,8.36
2022-09-23T05:58:45.175Z,8.30
2022-09-23T06:01:14.754Z,8.24
2022-09-23T06:03:41.740Z,8.27
2022-09-23T06:06:15.085Z,8.27
2022-09-23T06:08:42.829Z,8.35
2022-09-23T06:11:10.435Z,8.63
2022-09-23T06:13:38.461Z,9.01
2022-09-23T06:16:09.630Z,9.21
2022-09-23T06:18:38.896Z,9.23
2022-09-23T06:21:06.451Z,9.26
2022-09-23T06:23:34.535Z,9.48
2022-09-23T06:26:08.799Z,9.95
2022-09-23T06:28:37.994Z,10.28
2022-09-23T06:31:14.206Z,10.44
2022-09-23T06:33:43.184Z,10.53
2022-09-23T06:36:11.218Z,10.69
2022-09-23T06:38:42.240Z,10.93
2022-09-23T06:41:09.763Z,11.43
2022-09-23T06:43:36.833Z,12.08
2022-09-23T06:46:06.214Z,12.62
2022-09-23T06:48:36.756Z,12.79
2022-09-23T06:51:07.587Z,12.98
2022-09-23T06:53:34.862Z,13.32
2022-09-23T06:56:04.626Z,13.71
2022-09-23T06:58:32.898Z,14.23
2022-09-23T07:01:08.192Z,14.62
2022-09-23T07:03:36.285Z,14.76
2022-09-23T07:06:03.929Z,14.92
2022-09-23T07:08:34.004Z,14.97
2022-09-23T07:11:05.004Z,15.10
2022-09-23T07:13:33.729Z,15.24
2022-09-23T07:16:02.415Z,15.33
2022-09-23T07:18:37.258Z,15.45
2022-09-23T07:21:10.264Z,15.53
2022-09-23T07:23:38.019Z,15.41
2022-09-23T07:26:09.133Z,15.38
2022-09-23T07:28:37.406Z,15.48
2022-09-23T07:31:10.974Z,15.52
2022-09-23T07:33:40.113Z,15.62
2022-09-23T07:36:17.549Z,15.70
2022-09-23T07:38:45.958Z,15.80
2022-09-23T07:41:17.169Z,15.77
2022-09-23T07:43:45.431Z,15.82
2022-09-23T07:46:16.696Z,15.66
2022-09-23T07:48:46.088Z,15.87
2022-09-23T07:51:16.807Z,16.17
2022-09-23T07:53:48.594Z,16.37
2022-09-23T07:56:19.645Z,16.55
2022-09-23T07:59:00.410Z,16.52
2022-09-23T08:01:39.177Z,16.30
2022-09-23T08:04:10.804Z,15.88
2022-09-23T08:06:45.154Z,15.76
2022-09-23T08:09:12.959Z,15.88
2022-09-23T08:11:42.365Z,16.15
2022-09-23T08:14:12.597Z,16.53
2022-09-23T08:16:40.656Z,16.77
2022-09-23T08:19:08.829Z,16.69
2022-09-23T08:21:37.918Z,16.45
2022-09-23T08:24:14.973Z,16.11
2022-09-23T08:26:42.243Z,15.79
2022-09-23T08:29:12.260Z,15.50
2022-09-23T08:31:39.489Z,15.32
2022-09-23T08:34:07.146Z,15.38
2022-09-23T08:36:34.782Z,15.34
2022-09-23T08:39:02.105Z,15.24
2022-09-23T08:41:57.580Z,15.02
2022-09-23T08:44:33.403Z,14.91
2022-09-23T08:47:00.355Z,14.94
2022-09-23T08:49:35.946Z,14.96
2022-09-23T08:52:12.925Z,14.93
2022-09-23T08:54:40.029Z,14.89
2022-09-23T08:57:15.340Z,14.89
2022-09-23T08:59:44.338Z,14.94
2022-09-23T09:02:22.483Z,15.08
2022-09-23T09:05:01.512Z,14.88
2022-09-23T09:07:37.076Z,14.85
2022-09-23T09:10:16.239Z,14.85
2022-09-23T09:12:59.243Z,14.78
2022-09-23T09:15:28.569Z,15.00
2022-09-23T09:18:17.350Z,15.14
2022-09-23T09:20:51.563Z,15.03
2022-09-23T09:23:38.575Z,14.99
2022-09-23T09:26:10.550Z,15.14
2022-09-23T09:28:47.762Z,15.73
2022-09-23T09:31:33.263Z,16.23
2022-09-23T09:34:03.187Z,16.51
2022-09-23T09:36:36.511Z,16.62
2022-09-23T09:39:04.111Z,16.55
2022-09-23T09:41:33.841Z,16.77
2022-09-23T09:44:40.158Z,17.09
2022-09-23T09:47:28.951Z,17.25
2022-09-23T09:50:10.707Z,17.42
2022-09-23T09:52:43.679Z,17.67
2022-09-23T09:55:13.729Z,17.97
2022-09-23T09:58:02.049Z,18.10
2022-09-23T10:00:29.637Z,18.20
2022-09-23T10:03:01.765Z,18.33
2022-09-23T10:05:33.584Z,18.40
2022-09-23T10:08:19.107Z,18.49
2022-09-23T10:11:04.473Z,18.52
2022-09-23T10:13:32.358Z,18.35
2022-09-23T10:16:04.175Z,18.38
2022-09-23T10:18:47.654Z,18.45
2022-09-23T10:21:18.250Z,18.76
2022-09-23T10:23:52.293Z,18.81
2022-09-23T10:26:33.348Z,18.84
2022-09-23T10:29:20.678Z,19.04
2022-09-23T10:31:47.591Z,19.19
2022-09-23T10:34:27.830Z,19.29
2022-09-23T10:37:14.291Z,18.87
2022-09-23T10:40:00.189Z,18.46
2022-09-23T10:42:45.940Z,18.00
2022-09-23T10:45:43.243Z,17.73
2022-09-23T10:48:45.282Z,17.65
2022-09-23T10:51:28.461Z,17.67
2022-09-23T10:54:30.806Z,17.29
2022-09-23T10:57:21.688Z,17.02
2022-09-23T10:59:57.503Z,16.63
2022-09-23T11:02:41.200Z,16.43
2022-09-23T11:05:26.809Z,16.21
2022-09-23T11:08:00.443Z,16.13
2022-09-23T11:10:46.046Z,16.06
2022-09-23T11:13:19.795Z,16.05
2022-09-23T11:16:02.964Z,16.04
2022-09-23T11:18:37.577Z,16.01
2022-09-23T11:21:26.764Z,16.02
2022-09-23T11:24:31.460Z,16.36
2022-09-23T11:27:37.330Z,16.76
2022-09-23T11:30:13.564Z,17.14
2022-09-23T11:32:51.650Z,17.37
2022-09-23T11:35:26.361Z,17.50
2022-09-23T11:38:02.076Z,17.63
2022-09-23T11:40:40.855Z,17.39
2022-09-23T11:43:23.695Z,17.50
2022-09-23T11:45:59.304Z,17.65
2022-09-23T11:48:57.663Z,17.77
2022-09-23T11:51:34.905Z,17.58
2022-09-23T11:54:09.848Z,17.36
2022-09-23T11:56:49.007Z,17.24
2022-09-23T11:59:39.392Z,17.18
2022-09-23T12:03:03.895Z,17.02
2022-09-23T12:05:42.009Z,16.85
2022-09-23T12:08:29.336Z,16.83
2022-09-23T12:11:08.770Z,16.73
2022-09-23T12:14:07.550Z,16.77
2022-09-23T12:16:43.842Z,16.88
2022-09-23T12:19:34.408Z,16.91
2022-09-23T12:22:16.859Z,16.94
2022-09-23T12:24:59.174Z,16.87
2022-09-23T12:27:32.909Z,17.07
2022-09-23T12:30:04.330Z,17.34
2022-09-23T12:32:32.618Z,17.58
2022-09-23T12:35:03.040Z,17.49
2022-09-23T12:37:39.177Z,17.46
2022-09-23T12:40:10.694Z,17.38
2022-09-23T12:42:46.337Z,17.36
2022-09-23T12:45:32.931Z,17.31
2022-09-23T12:48:03.413Z,17.20
2022-09-23T12:50:58.771Z,17.02
2022-09-23T12:53:34.873Z,16.96
2022-09-23T12:56:15.913Z,17.07
2022-09-23T12:58:43.107Z,17.20
2022-09-23T13:01:18.833Z,17.24
2022-09-23T13:04:16.071Z,17.20
2022-09-23T13:07:07.215Z,17.03
2022-09-23T13:09:59.339Z,16.94
2022-09-23T13:12:33.674Z,16.86
2022-09-23T13:15:06.923Z,16.72
2022-09-23T13:17:38.006Z,16.75
2022-09-23T13:20:26.693Z,16.81
2022-09-23T13:22:53.765Z,16.84
2022-09-23T13:25:24.812Z,16.72
2022-09-23T13:27:56.195Z,16.62
2022-09-23T13:30:26.640Z,16.56
2022-09-23T13:33:17.318Z,16.45
2022-09-23T13:35:52.613Z,16.34
2022-09-23T13:38:30.333Z,16.22
2022-09-23T13:41:02.431Z,16.29
2022-09-23T13:43:41.543Z,16.07
2022-09-23T13:46:21.571Z,15.95
2022-09-23T13:48:55.098Z,15.73
2022-09-23T13:51:33.352Z,15.60
2022-09-23T13:54:02.784Z,15.53
2022-09-23T13:56:32.523Z,15.64
2022-09-23T13:59:38.940Z,15.77
2022-09-23T14:02:20.250Z,15.87
2022-09-23T14:04:47.916Z,15.83
2022-09-23T14:07:22.374Z,15.73
2022-09-23T14:09:53.261Z,15.71
2022-09-23T14:12:22.506Z,15.63
2022-09-23T14:14:53.198Z,15.57
2022-09-23T14:17:25.936Z,15.53
2022-09-23T14:19:53.063Z,15.51
2022-09-23T14:22:29.451Z,15.56
2022-09-23T14:24:57.740Z,15.64
2022-09-23T14:27:32.836Z,15.62
2022-09-23T14:30:02.785Z,15.69
2022-09-23T14:32:30.957Z,15.67
2022-09-23T14:35:00.617Z,15.64
2022-09-23T14:37:51.105Z,15.55
2022-09-23T14:40:25.148Z,15.39
2022-09-23T14:42:58.786Z,15.27
2022-09-23T14:45:28.526Z,15.21
2022-09-23T14:48:14.943Z,15.13
2022-09-23T14:50:49.561Z,15.07
2022-09-23T14:53:19.416Z,14.95
2022-09-23T14:55:57.455Z,14.87
2022-09-23T14:58:30.441Z,14.82
2022-09-23T15:01:02.581Z,14.79
2022-09-23T15:03:29.799Z,14.80
2022-09-23T15:06:04.109Z,14.77
2022-09-23T15:08:35.993Z,14.74
2022-09-23T15:11:08.214Z,14.74
2022-09-23T15:13:41.863Z,14.75
2022-09-23T15:16:08.917Z,14.76
2022-09-23T15:18:37.924Z,14.67
2022-09-23T15:21:13.004Z,14.71
2022-09-23T15:23:49.180Z,14.75
2022-09-23T15:26:41.168Z,14.65
2022-09-23T15:29:10.106Z,14.56
2022-09-23T15:31:38.044Z,14.48
2022-09-23T15:34:06.846Z,14.39
2022-09-23T15:36:35.180Z,14.31
2022-09-23T15:39:04.687Z,14.21
2022-09-23T15:41:33.561Z,14.16
2022-09-23T15:44:16.679Z,14.00
2022-09-23T15:46:50.331Z,13.98
2022-09-23T15:49:39.185Z,13.82
2022-09-23T15:52:08.660Z,13.67
2022-09-23T15:54:35.950Z,13.55
2022-09-23T15:57:02.996Z,13.46
2022-09-23T15:59:31.413Z,13.35
2022-09-23T16:02:03.631Z,13.33
2022-09-23T16:04:31.710Z,13.23
2022-09-23T16:06:59.260Z,13.25
2022-09-23T16:09:30.983Z,13.06
2022-09-23T16:11:58.374Z,12.92
2022-09-23T16:14:25.377Z,12.77
2022-09-23T16:16:52.704Z,12.72
2022-09-23T16:19:19.678Z,12.70
2022-09-23T16:21:47.206Z,12.39
2022-09-23T16:24:19.009Z,12.17
2022-09-23T16:26:48.413Z,12.13
2022-09-23T16:29:15.853Z,12.06
2022-09-23T16:31:43.363Z,11.95
2022-09-23T16:34:11.060Z,11.93
2022-09-23T16:36:43.567Z,11.78
2022-09-23T16:39:13.780Z,11.65
2022-09-23T16:41:41.377Z,11.58
2022-09-23T16:44:09.605Z,11.54
2022-09-23T16:46:37.175Z,11.49
2022-09-23T16:49:04.794Z,11.31
2022-09-23T16:51:38.868Z,11.24
2022-09-23T16:54:11.679Z,11.20
2022-09-23T16:56:44.569Z,11.06
2022-09-23T16:59:12.971Z,10.97
2022-09-23T17:01:58.988Z,10.93
2022-09-23T17:04:28.122Z,10.86
2022-09-23T17:06:56.243Z,10.78
2022-09-23T17:09:27.569Z,10.69
2022-09-23T17:12:12.388Z,10.62
2022-09-23T17:14:39.645Z,10.59
2022-09-23T17:17:06.973Z,10.57
2022-09-23T17:19:34.932Z,10.57
2022-09-23T17:22:01.963Z,10.43
2022-09-23T17:24:28.965Z,10.29
2022-09-23T17:26:56.330Z,10.23
2022-09-23T17:29:23.290Z,10.19
2022-09-23T17:31:50.617Z,10.13
2022-09-23T17:34:19.623Z,10.13
2022-09-23T17:36:47.064Z,10.04
2022-09-23T17:39:14.389Z,9.98
2022-09-23T17:41:41.610Z,9.89
2022-09-23T17:44:11.967Z,9.84
2022-09-23T17:46:39.097Z,9.79
2022-09-23T17:49:07.172Z,9.80
2022-09-23T17:51:34.365Z,9.79
2022-09-23T17:54:01.282Z,9.83
2022-09-23T17:56:31.334Z,9.77
2022-09-23T17:59:02.171Z,9.82
2022-09-23T18:01:29.704Z,9.74
2022-09-23T18:04:01.933Z,9.63
2022-09-23T18:06:33.767Z,9.58
2022-09-23T18:09:04.232Z,9.43
2022-09-23T18:11:34.614Z,9.32
2022-09-23T18:14:22.317Z,9.36
2022-09-23T18:16:50.250Z,9.27
2022-09-23T18:19:20.503Z,9.25
2022-09-23T18:21:51.087Z,9.16
2022-09-23T18:24:31.801Z,9.12
2022-09-23T18:27:00.354Z,9.02
2022-09-23T18:29:27.591Z,9.04
2022-09-23T18:31:55.362Z,8.95
2022-09-23T18:34:22.535Z,8.93
2022-09-23T18:36:49.786Z,8.92
2022-09-23T18:39:17.512Z,8.88
2022-09-23T18:41:44.405Z,8.89
2022-09-23T18:44:11.668Z,8.85
2022-09-23T18:46:38.691Z,8.86
2022-09-23T18:49:24.379Z,8.77
2022-09-23T18:51:55.068Z,8.77
2022-09-23T18:54:27.975Z,8.70
2022-09-23T18:56:56.230Z,8.64
2022-09-23T18:59:28.152Z,8.59
2022-09-23T19:01:55.687Z,8.57
2022-09-23T19:04:24.770Z,8.57
2022-09-23T19:06:52.234Z,8.44
2022-09-23T19:09:19.308Z,8.43
2022-09-23T19:11:46.562Z,8.35
2022-09-23T19:14:14.138Z,8.19
2022-09-23T19:16:41.967Z,8.25
2022-09-23T19:19:09.825Z,8.26
2022-09-23T19:21:37.890Z,8.18
2022-09-23T19:24:07.607Z,8.17
2022-09-23T19:26:40.573Z,8.18
2022-09-23T19:29:13.423Z,8.21
2022-09-23T19:31:41.661Z,8.21
2022-09-23T19:34:26.228Z,8.31
2022-09-23T19:36:57.662Z,8.29
2022-09-23T19:39:28.474Z,8.26
2022-09-23T19:41:59.462Z,8.24
2022-09-23T19:44:27.228Z,8.25
2022-09-23T19:46:56.841Z,8.23
2022-09-23T19:49:25.563Z,8.25
2022-09-23T19:51:55.983Z,8.12
2022-09-23T19:54:27.244Z,8.14
2022-09-23T19:56:54.869Z,8.15
2022-09-23T19:59:21.989Z,8.07
2022-09-23T20:01:49.564Z,8.02
2022-09-23T20:04:17.417Z,7.94
2022-09-23T20:06:46.306Z,7.89
2022-09-23T20:09:13.635Z,7.84
2022-09-23T20:11:43.263Z,7.80
2022-09-23T20:14:11.102Z,7.86
2022-09-23T20:16:43.446Z,7.83
2022-09-23T20:19:10.810Z,7.79
2022-09-23T20:21:38.472Z,7.73
2022-09-23T20:24:07.625Z,7.61
2022-09-23T20:26:53.312Z,7.56
2022-09-23T20:29:20.906Z,7.58
2022-09-23T20:31:48.260Z,7.56
2022-09-23T20:34:15.713Z,7.54
2022-09-23T20:36:42.829Z,7.50
2022-09-23T20:39:10.888Z,7.46
2022-09-23T20:41:39.603Z,7.47
2022-09-23T20:44:12.928Z,7.47
2022-09-23T20:46:45.269Z,7.44
2022-09-23T20:49:15.465Z,7.42
2022-09-23T20:51:43.061Z,7.51
2022-09-23T20:54:12.312Z,7.40
2022-09-23T20:56:39.730Z,7.38
2022-09-23T20:59:07.232Z,7.38
2022-09-23T21:01:36.912Z,7.33
2022-09-23T21:04:06.282Z,7.32
2022-09-23T21:06:35.917Z,7.28
2022-09-23T21:09:04.772Z,7.32
2022-09-23T21:11:32.409Z,7.28
2022-09-23T21:14:00.609Z,7.26
2022-09-23T21:16:28.030Z,7.22
2022-09-23T21:18:55.110Z,7.23
2022-09-23T21:21:22.650Z,7.22
2022-09-23T21:23:51.041Z,7.21
2022-09-23T21:26:20.911Z,7.08
2022-09-23T21:28:53.257Z,7.01
2022-09-23T21:31:23.835Z,6.95
2022-09-23T21:33:57.025Z,6.96
2022-09-23T21:36:24.922Z,6.90
2022-09-23T21:38:52.683Z,6.91
2022-09-23T21:41:20.358Z,6.83
2022-09-23T21:43:49.808Z,6.80
2022-09-23T21:46:21.117Z,6.75
2022-09-23T21:48:53.205Z,6.75
2022-09-23T21:51:24.368Z,6.71
2022-09-23T21:53:52.860Z,6.74
2022-09-23T21:56:23.009Z,6.69
2022-09-23T21:58:52.478Z,6.64
2022-09-23T22:01:22.663Z,6.61
2022-09-23T22:03:58.255Z,6.55
2022-09-23T22:06:27.885Z,6.43
2022-09-23T22:09:00.623Z,6.40
2022-09-23T22:11:49.260Z,6.46
2022-09-23T22:14:20.064Z,6.35
2022-09-23T22:16:47.417Z,6.36
2022-09-23T22:19:35.673Z,6.33
2022-09-23T22:22:13.571Z,6.32
2022-09-23T22:24:46.904Z,6.37
2022-09-23T22:27:16.159Z,6.32
2022-09-23T22:30:01.531Z,6.28
2022-09-23T22:32:40.773Z,6.26
2022-09-23T22:35:10.831Z,6.26
2022-09-23T22:37:38.259Z,6.28
2022-09-23T22:40:14.328Z,6.24
2022-09-23T22:42:42.207Z,6.24
2022-09-23T22:45:12.324Z,6.23
2022-09-23T22:47:41.341Z,6.26
2022-09-23T22:50:10.182Z,6.20
2022-09-23T22:52:38.031Z,6.21
2022-09-23T22:55:08.167Z,6.17
2022-09-23T22:57:35.354Z,6.20
2022-09-23T23:00:06.504Z,6.12
2022-09-23T23:02:33.882Z,6.09
2022-09-23T23:05:04.706Z,6.06
2022-09-23T23:07:32.441Z,6.04
2022-09-23T23:09:59.675Z,6.07
2022-09-23T23:12:26.636Z,6.10
2022-09-23T23:14:53.642Z,5.99
2022-09-23T23:17:20.672Z,6.07
2022-09-23T23:19:47.846Z,6.02
2022-09-23T23:22:15.028Z,6.04
2022-09-23T23:24:42.043Z,6.03
2022-09-23T23:27:09.408Z,5.99
2022-09-23T23:29:36.340Z,5.95
2022-09-23T23:32:03.393Z,5.97
2022-09-23T23:34:30.366Z,5.92
2022-09-23T23:36:57.379Z,5.95
2022-09-23T23:39:25.736Z,5.90
2022-09-23T23:41:55.113Z,5.85
2022-09-23T23:44:24.920Z,5.86
2022-09-23T23:46:52.619Z,5.84
2022-09-23T23:49:19.830Z,5.80
2022-09-23T23:51:48.240Z,5.81
2022-09-23T23:54:15.764Z,5.77
2022-09-23T23:56:43.263Z,5.76
2022-09-23T23:59:10.461Z,5.77
